METAR AND TAF INFORMATION
METAR FOR YPLM
ADDS - METARS form results

(0452 UTC 25 September 2018)
Data provider http://aviationweather.gov/metar/data/
 
METAR text: YPLM 250430Z AUTO 10011KT 9999 // NCD 35/04 Q1014 RF00.0/000.0
Conditions at: YPLM (LEARMOUTH , AU) observed 0430 UTC 25 September 2018
Temperature: 35.0°C (95°F)
Dewpoint: 4.0°C (39°F) [RH = 14%]
Pressure (altimeter): 29.94 inches Hg (1014.0 mb)
Winds: from the E (100 degrees) at 13 MPH (11 knots; 5.7 m/s)
Visibility: 6 or more miles (10+ km)
Ceiling: at least 12,000 feet AGL
Clouds: sky clear below 12,000 feet AGL
Weather: no significant weather observed at this time

METAR text: YPLM 250400Z AUTO 14009KT 9999 // NCD 35/05 Q1014
Conditions at: YPLM (LEARMOUTH , AU) observed 0400 UTC 25 September 2018
Temperature: 35.0°C (95°F)
Dewpoint: 5.0°C (41°F) [RH = 16%]
Pressure (altimeter): 29.94 inches Hg (1014.0 mb)
Winds: from the SE (140 degrees) at 10 MPH (9 knots; 4.6 m/s)
Visibility: 6 or more miles (10+ km)
Ceiling: at least 12,000 feet AGL
Clouds: sky clear below 12,000 feet AGL
Weather: no significant weather observed at this time

Forecast for: YPLM (LEARMOUTH , AU)
Text: TAF YPLM 242315Z 2500/2524 17014KT CAVOK
Forecast period: 0000 to 0900 UTC 25 September 2018
Forecast type: FROM: standard forecast or significant change
Winds: from the S (170 degrees) at 16 MPH (14 knots; 7.2 m/s)
Visibility: 6 or more miles 10+ km)
Ceiling: unknown
Clouds: missing
Weather: NSW  (no significant weather)
Text: FM250900 24016KT CAVOK
Forecast period: 0900 to 1400 UTC 25 September 2018
Forecast type: FROM: standard forecast or significant change
Winds: from the WSW (240 degrees) at 18 MPH (16 knots; 8.2 m/s)
Visibility: 6 or more miles 10+ km)
Ceiling: unknown
Clouds: missing
Weather: NSW  (no significant weather)
Text: FM251400 20012KT CAVOK
Forecast period: 1400 UTC 25 September 2018 to 0000 UTC 26 September 2018
Forecast type: FROM: standard forecast or significant change
Winds: from the SSW (200 degrees) at 14 MPH (12 knots; 6.2 m/s)
Visibility: 6 or more miles 10+ km)
Ceiling: unknown
Clouds: missing
Weather: NSW  (no significant weather)

 AIRPORT MAP

 RUNWAY INFORMATION
Runway 18 Runway length 9997 ft Runway width 148 ft
Runway elevation 13 ft Runway displaced threshold 0 ft Runway heading 184
Runway 36 Runway length 9997 ft Runway width 148 ft
Runway elevation 19 ft Runway displaced threshold 0 ft Runway heading 4

 AIRPORT FREQUENCIES
Type APP Name APP Frequency 120.5 MHZ
Type CTAF Name CTAF Frequency 118.3 MHZ
Type FSS Name MELBOURNE Frequency 125.9 MHZ
Type GND Name GND Frequency 25.93 MHZ
Type TWR Name TWR Frequency 25.78 MHZ

 AIRPORT NEAR NAVIGATION AIDS
Type VOR-DME Name Learmonth Frequency 112400 KHZ
Type NDB Name Learmonth Frequency 396 KHZ